Terminal Aerodrome Forecast
Issued by NWS Twin Cities, MN

Home | Current Version | Previous Version | Text Only | Print | Product List | Glossary Off
Versions: 1 2 3 4 5 6 7 8 9 10 11 12 13 14 15 16 17

789
FTUS43 KMPX 160536
TAFEAU
TAF
KEAU 160536Z 1606/1706 09005KT P6SM BKN120 OVC250
     FM161000 11004KT P6SM OVC050
     FM161500 11009KT 6SM BR OVC020
     FM162100 12010KT P6SM BKN035 PROB30 1703/1706 4SM TSRA
      OVC025CB=

USA.gov is the U.S. government's official web portal to all federal, state and local government web resources and services.